Valier, Montana
Current Conditions -  °F | °C
As of 9:56 AM on Saturday 20 Dec 2014 (Local Time) from KCTB Reporting Station
Clear Clear  
Wind Chill: 23°   Ceiling: Unl
Heat Index: 34°   Visibility: 10mi
Dew Point: 23°   Wind: 20mph
Humidity: 64%   Direction: 260°W
Pressure: 29.8"   Gusts: NA
Location:  48.31°N, 112.25°W
Report Text: KCTB 201656Z AUTO 26017KT 10SM CLR 01/M05 A2980 RMK AO2 SLP114 T00111050
Loading
Personal Weather Stations






























Interactive Weather Map New forecast layout! Learn more

10-Day Weather Forecast

Advertisements
Track Severe Weather on mobile